CheckWX is a tool to help pilots better visualize weather data.  It is not intended as a substitute for an official pre-flight weather briefing.

12:29:14 UTC

ENBN TAF
Brønnøysund Airport
Brønnøy, Norway
TAF ENBN 131100Z 1312/1320 15012KT 9999 FEW030 BKN050

Nov-13@
12:00 UTC

Nov-13 @ 12:00 UTC

Nov-13@
20:00 UTC

Nov-13 @ 20:00 UTC

TAF ENBN 131100Z 1312/1320 15012KT 9999 FEW030 BKN050
Wind
  • 150° at 12 KTS
Cloud Levels
  • Few at 3,000' AGL
  • Broken at 5,000' AGL